Thunder radar more information blitzortung!


Radar de pluja more information rain snow radar


Visita la nostra xarxa de llocs de meteo:

Template documentation
and downloads

And another site



No particular awareness of the weather is required.    There are no Weather-warnings

Pagina Historial Weather Underground text

Diari Resum Octubre 6, 2017 Unitats:  Mètric    Imperial   Tant
« Previous Dia
SegĂźent Dia »
Diari Setmana Mensual Anual Personalitzada
  Maxima: Minima: Media:
Temperatura: -17.8 °C -8.9 °C -5.8 °C
Punt de rosada: -17.8 °C -10.6 °C -9.3 °C
Humitat: Humidity % 41 % 69 %
Wind Speed: 0 km/h 0 km/h 9 km/h
RĂ fegues de vent: 0 km/h - -
Vent:- - SE
Pression baro: 0 hPa 34428.8 hPa -
Precipitacions: 0 mm    
Historical Graphs
 
 
Dades de taula per Octubre 6, 2017
Temps Temperatura Punt de rosada Pression baro Vent Wind Speed RĂ fegues de vent Humitat Rainfall Rate (Hourly)
-17.8 °C -17.8 °C 0 hPa Calm     Humidity % 0 mm
00:00 -7.6 °C -8.8 °C 34462.7 hPa Calm   5.1 km/h 87 % 0 mm
00:04 -6.8 °C -8.2 °C 34496.6 hPa West 8 km/h 8 km/h 85 % 0 mm
00:09 -6.8 °C -8.2 °C 34496.6 hPa WSW 9 km/h 9 km/h 85 % 0 mm
00:10 -7.6 °C -8.8 °C 34462.7 hPa NNE 2.6 km/h 5.1 km/h 87 % 0 mm
00:14 -6.8 °C -8.2 °C 34462.7 hPa West 6.8 km/h 6.8 km/h 85 % 0 mm
00:20 -7.7 °C -8.9 °C 34462.7 hPa Calm   5.1 km/h 87 % 0 mm
00:30 -7.8 °C -9 °C 34462.7 hPa Calm   2.6 km/h 87 % 0 mm
00:40 -7.8 °C -8.9 °C 34462.7 hPa Calm   2.6 km/h 88 % 0 mm
00:50 -7.9 °C -9 °C 34462.7 hPa Calm   5.1 km/h 88 % 0 mm
01:00 -8 °C -9.2 °C 34462.7 hPa NNE 2.6 km/h 5.1 km/h 87 % 0 mm
01:10 -8.1 °C -9.3 °C 34462.7 hPa NNW 2.6 km/h 10.3 km/h 87 % 0 mm
01:20 -8.2 °C -9.3 °C 34462.7 hPa WNW 2.6 km/h 5.1 km/h 88 % 0 mm
01:30 -8.2 °C -9.3 °C 34428.8 hPa WSW 2.6 km/h 5.1 km/h 88 % 0 mm
01:40 -8.3 °C -9.4 °C 34428.8 hPa SW 2.6 km/h 2.6 km/h 88 % 0 mm
01:50 -8.3 °C -9.3 °C 34462.7 hPa SW 5.1 km/h 7.7 km/h 89 % 0 mm
02:00 -8.3 °C -9.3 °C 34462.7 hPa Calm   5.1 km/h 90 % 0 mm
02:10 -8.4 °C -9.3 °C 34462.7 hPa Calm   2.6 km/h 90 % 0 mm
02:20 -8.7 °C -9.7 °C 34462.7 hPa Calm     89 % 0 mm
02:30 -8.7 °C -9.7 °C 34462.7 hPa Calm   2.6 km/h 89 % 0 mm
02:40 -8.9 °C -9.9 °C 34462.7 hPa Calm   7.7 km/h 89 % 0 mm
02:50 -8.9 °C -9.9 °C 34462.7 hPa Calm   2.6 km/h 89 % 0 mm
03:00 -8.9 °C -9.9 °C 34462.7 hPa Calm     89 % 0 mm
03:10 -8.9 °C -10.1 °C 34462.7 hPa Calm     88 % 0 mm
03:20 -8.9 °C -10 °C 34462.7 hPa WNW 2.6 km/h 2.6 km/h 88 % 0 mm
03:30 -8.8 °C -10.1 °C 34462.7 hPa Calm   5.1 km/h 87 % 0 mm
03:40 -8.6 °C -9.8 °C 34462.7 hPa North 5.1 km/h 7.7 km/h 87 % 0 mm
03:50 -8.2 °C -9.6 °C 34462.7 hPa NE 5.1 km/h 5.1 km/h 85 % 0 mm
04:00 -8.1 °C -9.7 °C 34462.7 hPa Calm   2.6 km/h 83 % 0 mm
04:10 -8.1 °C -9.7 °C 34462.7 hPa Calm   5.1 km/h 83 % 0 mm
04:20 -7.8 °C -9.5 °C 34462.7 hPa West 2.6 km/h 5.1 km/h 82 % 0 mm
04:30 -7.3 °C -9.3 °C 34462.7 hPa Calm   2.6 km/h 79 % 0 mm
04:40 -7.2 °C -9.5 °C 34462.7 hPa West 2.6 km/h 5.1 km/h 77 % 0 mm
04:50 -6.9 °C -9.3 °C 34462.7 hPa Calm   5.1 km/h 76 % 0 mm
05:00 -6.4 °C -9.1 °C 34462.7 hPa South 2.6 km/h 5.1 km/h 74 % 0 mm
05:20 -6.4 °C -9.3 °C 34496.6 hPa NE 5.1 km/h 7.7 km/h 72 % 0 mm
05:30 -6.4 °C -9.8 °C 34496.6 hPa ENE 5.1 km/h 12.9 km/h 68 % 0 mm
05:40 -6.1 °C -9.4 °C 34496.6 hPa Calm   5.1 km/h 69 % 0 mm
10:44 -6.1 °C -9.3 °C 34496.6 hPa West 9 km/h 9 km/h 69 % 0 mm
10:45 -6 °C -9.3 °C 34496.6 hPa WSW 9 km/h 9 km/h 69 % 0 mm
10:47 -6 °C -9.3 °C 34496.6 hPa WNW 6 km/h   69 % 0 mm
10:52 -5.9 °C -9.3 °C 34496.6 hPa ENE 6 km/h 6 km/h 68 % 0 mm
10:57 -6 °C -9.7 °C 34496.6 hPa NNE 11.9 km/h 11.9 km/h 66 % 0 mm
11:02 -5.9 °C -9.4 °C 34496.6 hPa ENE 9 km/h 9.8 km/h 67 % 0 mm
11:07 -5.9 °C -9.7 °C 34496.6 hPa East 9 km/h 9 km/h 65 % 0 mm
11:12 -5.9 °C -9.7 °C 34496.6 hPa NE 9 km/h 11.1 km/h 65 % 0 mm
11:17 -5.8 °C -9.6 °C 34496.6 hPa NNE 14 km/h 14 km/h 65 % 0 mm
11:22 -5.9 °C -9.8 °C 34496.6 hPa NNE 11.9 km/h 11.9 km/h 64 % 0 mm
11:27 -5.7 °C -9.6 °C 34496.6 hPa ESE 6.3 km/h 6.3 km/h 65 % 0 mm
11:32 -5.6 °C -9.9 °C 34496.6 hPa SSE 3.7 km/h 6.8 km/h 61 % 0 mm
11:37 -5.3 °C -9.4 °C 34496.6 hPa SW 6 km/h   63 % 0 mm
11:42 -5.1 °C -9.2 °C 34496.6 hPa North 3.1 km/h 3.1 km/h 63 % 0 mm
11:47 -5.2 °C -9.4 °C 34496.6 hPa ENE 11.9 km/h 11.9 km/h 62 % 0 mm
11:52 -5.3 °C -9.7 °C 34496.6 hPa ENE 11.9 km/h 11.9 km/h 61 % 0 mm
11:57 -5.2 °C -9.5 °C 34496.6 hPa ENE 11.9 km/h 11.9 km/h 62 % 0 mm
12:02 -5.3 °C -9.7 °C 34496.6 hPa NE 6 km/h 8 km/h 61 % 0 mm
12:07 -5.1 °C -9.5 °C 34496.6 hPa WSW 6.3 km/h 6.3 km/h 61 % 0 mm
12:12 -4.8 °C -9.3 °C 34496.6 hPa NNW 6 km/h 6 km/h 61 % 0 mm
12:17 -4.6 °C -9.1 °C 34496.6 hPa WNW 9.3 km/h 9.3 km/h 60 % 0 mm
12:22 -4.7 °C -9.2 °C 34496.6 hPa ESE 12.7 km/h 12.7 km/h 60 % 0 mm
12:27 -4.7 °C -9.4 °C 34496.6 hPa West 7.6 km/h 7.6 km/h 59 % 0 mm
12:37 -4.7 °C -9.4 °C 34496.6 hPa SW 9.8 km/h 9.8 km/h 59 % 0 mm
12:42 -4.6 °C -9.4 °C 34496.6 hPa WSW 11.9 km/h 11.9 km/h 58 % 0 mm
12:47 -4.4 °C -9.4 °C 34462.7 hPa SSE 6 km/h 6.3 km/h 57 % 0 mm
12:52 -4.2 °C -9.5 °C 34462.7 hPa SE 9.3 km/h 9.3 km/h 55 % 0 mm
12:57 -4.1 °C -9.3 °C 34462.7 hPa SW 9 km/h 9 km/h 56 % 0 mm
13:02 -4.1 °C -9.5 °C 34462.7 hPa Calm     55 % 0 mm
13:07 -3.9 °C -9.6 °C 34462.7 hPa South 6 km/h 6 km/h 53 % 0 mm
13:12 -3.7 °C -9.4 °C 34462.7 hPa SSE 9 km/h 9 km/h 53 % 0 mm
13:17 -3.6 °C -9.2 °C 34462.7 hPa NW 11.9 km/h 11.9 km/h 54 % 0 mm
13:22 -3.9 °C -9.8 °C 34462.7 hPa NNE 9 km/h 9 km/h 52 % 0 mm
13:27 -3.9 °C -9.8 °C 34462.7 hPa NE 11.9 km/h 11.9 km/h 52 % 0 mm
13:32 -4 °C -9.7 °C 34462.7 hPa ENE 9.3 km/h 9.3 km/h 53 % 0 mm
13:37 -4 °C -9.8 °C 34462.7 hPa SE 11.9 km/h   52 % 0 mm
13:42 -3.6 °C -9.4 °C 34462.7 hPa South 6 km/h 6 km/h 52 % 0 mm
13:47 -3.8 °C -10.4 °C 34462.7 hPa SSE 11.9 km/h 11.9 km/h 48 % 0 mm
13:52 -3.8 °C -10.2 °C 34462.7 hPa ESE 6 km/h 6 km/h 49 % 0 mm
13:57 -3.8 °C -10.2 °C 34462.7 hPa NNE 9 km/h 9 km/h 49 % 0 mm
14:02 -3.7 °C -9.9 °C 34462.7 hPa NW 11.9 km/h 11.9 km/h 50 % 0 mm
14:07 -3.6 °C -9.8 °C 34462.7 hPa SW 11.9 km/h 11.9 km/h 50 % 0 mm
14:12 -3.2 °C -9.5 °C 34462.7 hPa WSW 14 km/h 14 km/h 50 % 0 mm
14:17 -3.1 °C -9.6 °C 34428.8 hPa South 11.9 km/h 11.9 km/h 49 % 0 mm
14:27 -3 °C -9.8 °C 34428.8 hPa NW 11.9 km/h 11.9 km/h 47 % 0 mm
14:32 -2.9 °C -9.9 °C 34462.7 hPa East 9 km/h 9 km/h 46 % 0 mm
14:37 -3.1 °C -9.9 °C 34462.7 hPa South 6 km/h 6 km/h 47 % 0 mm
14:42 -2.7 °C -9.9 °C 34462.7 hPa SSE 7.6 km/h 7.6 km/h 45 % 0 mm
14:47 -2.7 °C -9.9 °C 34462.7 hPa SW 9.3 km/h 9.3 km/h 45 % 0 mm
14:52 -2.7 °C -9.9 °C 34462.7 hPa SW 15 km/h 15 km/h 45 % 0 mm
14:53 -2.8 °C -10.2 °C 34462.7 hPa East 11.9 km/h 11.9 km/h 44 % 0 mm
14:58 -2.6 °C -10.2 °C 34462.7 hPa NE 9 km/h 9 km/h 43 % 0 mm
15:03 -2.3 °C -9.7 °C 34462.7 hPa NNW 11.9 km/h 11.9 km/h 44 % 0 mm
15:08 -2.2 °C -9.7 °C 34462.7 hPa SW 7.6 km/h 7.6 km/h 44 % 0 mm
15:13 -2.4 °C -9.9 °C 34462.7 hPa WSW 15 km/h 15 km/h 44 % 0 mm
15:18 -2.3 °C -9.9 °C 34462.7 hPa West 15 km/h 15 km/h 43 % 0 mm
15:23 -2.2 °C -10 °C 34462.7 hPa NE 7.6 km/h 7.6 km/h 42 % 0 mm
15:28 -2.2 °C -10.3 °C 34462.7 hPa ESE 7.6 km/h 7.6 km/h 41 % 0 mm
15:33 -2.6 °C -10.6 °C 34462.7 hPa ENE 15 km/h 15 km/h 41 % 0 mm
15:38 -3.1 °C -10.1 °C 34462.7 hPa ESE 23.3 km/h 23.3 km/h 46 % 0 mm
15:43 -3.4 °C -9.7 °C 34462.7 hPa East 20.9 km/h 20.9 km/h 50 % 0 mm
15:48 -3.7 °C -9.8 °C 34462.7 hPa East 20.9 km/h 20.9 km/h 51 % 0 mm
15:53 -3.7 °C -9.6 °C 34462.7 hPa ESE 23.8 km/h 23.8 km/h 52 % 0 mm
15:58 -3.8 °C -9.6 °C 34462.7 hPa SE 26.9 km/h 26.9 km/h 53 % 0 mm
16:03 -4 °C -9.2 °C 34462.7 hPa East 22.5 km/h 22.5 km/h 56 % 0 mm
16:08 -4 °C -9.1 °C 34462.7 hPa ESE 29.8 km/h 29.8 km/h 57 % 0 mm
16:13 -4.2 °C -9.1 °C 34462.7 hPa SSE 26.9 km/h 26.9 km/h 58 % 0 mm
16:18 -4.3 °C -9 °C 34462.7 hPa East 32.8 km/h 32.8 km/h 59 % 0 mm
16:23 -4.4 °C -9 °C 34462.7 hPa SE 23.8 km/h 23.8 km/h 60 % 0 mm
16:28 -4.4 °C -9 °C 34428.8 hPa SE 26.9 km/h 26.9 km/h 60 % 0 mm
16:33 -4.4 °C -9 °C 34428.8 hPa ESE 25.1 km/h 25.1 km/h 60 % 0 mm
16:38 -4.3 °C -8.9 °C 34428.8 hPa SSE 11.9 km/h 11.9 km/h 60 % 0 mm
16:43 -4.6 °C -8.8 °C 34462.7 hPa East 20.9 km/h 20.9 km/h 62 % 0 mm
16:48 -4.6 °C -8.7 °C 34462.7 hPa ESE 20.9 km/h 20.9 km/h 63 % 0 mm
16:53 -4.6 °C -8.6 °C 34462.7 hPa ESE 23.8 km/h 23.8 km/h 64 % 0 mm
16:58 -4.7 °C -8.6 °C 34462.7 hPa ENE 17.9 km/h 17.9 km/h 65 % 0 mm
17:03 -4.7 °C -8.6 °C 34462.7 hPa ESE 15 km/h 15 km/h 65 % 0 mm
17:08 -4.6 °C -8.4 °C 34462.7 hPa ENE 14 km/h 14 km/h 65 % 0 mm
17:13 -4.6 °C -8.6 °C 34462.7 hPa ENE 11.9 km/h 11.9 km/h 64 % 0 mm
17:18 -4.5 °C -8.5 °C 34462.7 hPa ESE 15 km/h 15 km/h 64 % 0 mm
17:23 -4.6 °C -8.4 °C 34462.7 hPa East 23.8 km/h 23.8 km/h 65 % 0 mm
17:28 -4.6 °C -8.5 °C 34428.8 hPa ENE 17.9 km/h 17.9 km/h 65 % 0 mm
17:33 -4.6 °C -8.4 °C 34428.8 hPa ESE 11.9 km/h 11.9 km/h 65 % 0 mm
17:38 -4.6 °C -8.4 °C 34428.8 hPa East 23.8 km/h 23.8 km/h 66 % 0 mm
17:43 -4.7 °C -8.4 °C 34428.8 hPa ENE 11.9 km/h 11.9 km/h 66 % 0 mm
17:48 -4.7 °C -8.4 °C 34428.8 hPa East 15 km/h 15 km/h 66 % 0 mm
17:53 -4.8 °C -8.4 °C 34428.8 hPa NE 15 km/h 15 km/h 67 % 0 mm
17:58 -4.8 °C -8.4 °C 34428.8 hPa ESE 15 km/h 15 km/h 67 % 0 mm
18:03 -4.8 °C -8.3 °C 34428.8 hPa ENE 11.9 km/h 11.9 km/h 68 % 0 mm
18:08 -4.9 °C -8.3 °C 34428.8 hPa ENE 17.9 km/h 17.9 km/h 69 % 0 mm
18:13 -5.1 °C -8.4 °C 34462.7 hPa ESE 20.9 km/h 20.9 km/h 69 % 0 mm
18:18 -5.2 °C -8.5 °C 34462.7 hPa ENE 15 km/h 15 km/h 69 % 0 mm
18:24 -5.2 °C -8.4 °C 34462.7 hPa ESE 15 km/h 15 km/h 70 % 0 mm
18:34 -5.3 °C -8.4 °C 34428.8 hPa NNE 11.9 km/h 11.9 km/h 70 % 0 mm
18:39 -5.3 °C -8.4 °C 34428.8 hPa East 20.9 km/h 20.9 km/h 70 % 0 mm
18:44 -5.3 °C -8.4 °C 34462.7 hPa ENE 10.3 km/h 10.3 km/h 71 % 0 mm
18:49 -5.4 °C -8.5 °C 34462.7 hPa ENE 11.9 km/h 11.9 km/h 71 % 0 mm
18:54 -5.4 °C -8.5 °C 34462.7 hPa East 15.6 km/h 15.6 km/h 71 % 0 mm
18:59 -5.5 °C -8.6 °C 34462.7 hPa East 11.9 km/h 11.9 km/h 71 % 0 mm
19:04 -5.6 °C -8.6 °C 34462.7 hPa ESE 15 km/h 15 km/h 71 % 0 mm
19:09 -5.6 °C -8.6 °C 34462.7 hPa East 9 km/h 9 km/h 72 % 0 mm
19:14 -5.7 °C -8.6 °C 34462.7 hPa ESE 11.9 km/h 11.9 km/h 72 % 0 mm
19:19 -5.7 °C -8.7 °C 34462.7 hPa ESE 11.9 km/h 11.9 km/h 72 % 0 mm
19:24 -5.8 °C -8.7 °C 34462.7 hPa ENE 11.9 km/h 11.9 km/h 72 % 0 mm
19:29 -5.8 °C -8.8 °C 34462.7 hPa ESE 12.7 km/h 12.7 km/h 72 % 0 mm
19:34 -5.9 °C -8.8 °C 34462.7 hPa ESE 11.9 km/h 11.9 km/h 72 % 0 mm
19:39 -5.9 °C -8.8 °C 34462.7 hPa ESE 11.9 km/h 11.9 km/h 72 % 0 mm
19:44 -6 °C -8.9 °C 34462.7 hPa SE 11.9 km/h 11.9 km/h 72 % 0 mm
19:49 -6.1 °C -9 °C 34462.7 hPa NE 12.2 km/h 12.2 km/h 72 % 0 mm
19:54 -6.1 °C -8.9 °C 34462.7 hPa ENE 9 km/h 9 km/h 73 % 0 mm
19:59 -6.1 °C -8.9 °C 34462.7 hPa NNE 9 km/h 9 km/h 73 % 0 mm
20:04 -6.2 °C -8.9 °C 34462.7 hPa East 11.1 km/h 11.1 km/h 73 % 0 mm
20:09 -6.2 °C -9 °C 34462.7 hPa ENE 9 km/h 9 km/h 73 % 0 mm
20:14 -6.3 °C -8.9 °C 34462.7 hPa ENE 11.9 km/h 11.9 km/h 74 % 0 mm
20:19 -6.3 °C -8.9 °C 34462.7 hPa ESE 9.3 km/h 9.3 km/h 74 % 0 mm
20:24 -6.3 °C -9 °C 34462.7 hPa ENE 5.1 km/h 5.6 km/h 74 % 0 mm
20:29 -6.3 °C -8.9 °C 34462.7 hPa ENE 11.1 km/h 11.1 km/h 75 % 0 mm
20:34 -6.4 °C -8.9 °C 34462.7 hPa ENE 6 km/h 6 km/h 75 % 0 mm
20:39 -6.4 °C -9 °C 34462.7 hPa North 9 km/h 9 km/h 75 % 0 mm
20:44 -6.4 °C -8.9 °C 34462.7 hPa NE 11.9 km/h 11.9 km/h 76 % 0 mm
20:49 -6.4 °C -8.9 °C 34462.7 hPa ENE 11.9 km/h 11.9 km/h 76 % 0 mm
20:54 -6.5 °C -8.9 °C 34462.7 hPa East 9 km/h 9 km/h 76 % 0 mm
20:58 -6.6 °C -8.8 °C 34462.7 hPa ENE 15 km/h 15 km/h 77 % 0 mm
21:03 -6.6 °C -8.8 °C 34462.7 hPa ESE 6 km/h 6 km/h 77 % 0 mm
21:08 -6.6 °C -8.8 °C 34462.7 hPa SE 9 km/h 9 km/h 78 % 0 mm
21:13 -6.6 °C -8.8 °C 34462.7 hPa ESE 6.8 km/h 6.8 km/h 78 % 0 mm
21:18 -6.7 °C -8.8 °C 34462.7 hPa ESE 11.9 km/h 11.9 km/h 79 % 0 mm
21:23 -6.7 °C -8.8 °C 34462.7 hPa East 11.9 km/h 11.9 km/h 79 % 0 mm
21:28 -6.7 °C -8.8 °C 34462.7 hPa ESE 6.8 km/h 6.8 km/h 79 % 0 mm
21:33 -6.7 °C -8.8 °C 34462.7 hPa East 3.1 km/h   79 % 0 mm
21:38 -6.8 °C -9 °C 34462.7 hPa ENE 6 km/h 6 km/h 78 % 0 mm
21:43 -6.8 °C -8.9 °C 34462.7 hPa NE 7.6 km/h 7.6 km/h 79 % 0 mm
21:48 -6.9 °C -9 °C 34496.6 hPa ESE 6 km/h 6 km/h 79 % 0 mm
21:53 -6.9 °C -9 °C 34496.6 hPa East 9 km/h 9 km/h 79 % 0 mm
21:58 -6.9 °C -9 °C 34496.6 hPa Calm     79 % 0 mm
22:03 -6.9 °C -9 °C 34496.6 hPa SSW 3.1 km/h 3.1 km/h 79 % 0 mm
22:08 -7.1 °C -9.3 °C 34496.6 hPa SW 6 km/h 6 km/h 78 % 0 mm
22:13 -7.2 °C -9.3 °C 34496.6 hPa SW 6 km/h 6 km/h 78 % 0 mm
22:18 -7.2 °C -9.4 °C 34496.6 hPa SW 6 km/h 6 km/h 78 % 0 mm
22:23 -7.3 °C -9.2 °C 34496.6 hPa Calm     80 % 0 mm
22:33 -7.3 °C -9.3 °C 34496.6 hPa SW 4.2 km/h   80 % 0 mm
22:38 -7.3 °C -9.3 °C 34496.6 hPa SW 6 km/h 6 km/h 80 % 0 mm
22:43 -7.3 °C -9.3 °C 34496.6 hPa Calm     80 % 0 mm
22:48 -7.3 °C -9.3 °C 34496.6 hPa SW 6 km/h 6 km/h 80 % 0 mm
22:53 -7.3 °C -9.2 °C 34496.6 hPa Calm     81 % 0 mm
22:58 -7.4 °C -9.2 °C 34496.6 hPa Calm     81 % 0 mm
23:03 -7.4 °C -9.2 °C 34496.6 hPa Calm     81 % 0 mm
23:08 -7.4 °C -9.3 °C 34496.6 hPa Calm     81 % 0 mm
23:13 -7.4 °C -9.3 °C 34496.6 hPa Calm     81 % 0 mm
23:18 -7.5 °C -9.3 °C 34496.6 hPa Calm     81 % 0 mm
23:23 -7.5 °C -9.3 °C 34496.6 hPa Calm     81 % 0 mm
23:28 -7.6 °C -9.4 °C 34496.6 hPa Calm     81 % 0 mm
23:33 -7.5 °C -9.3 °C 34496.6 hPa Calm     81 % 0 mm
23:38 -7.5 °C -9.3 °C 34496.6 hPa Calm     81 % 0 mm
23:43 -7.5 °C -9.3 °C 34533.8 hPa Calm     81 % 0 mm
23:53 -7.6 °C -9.4 °C 34533.8 hPa Calm     81 % 0 mm
23:58 -7.6 °C -9.3 °C 34533.8 hPa Calm     82 % 0 mm
Meteo Sesrovires
Elogis d' Weather Underground - 1.5 mb

Guio original per  Jim McMurry - jmcmurry@mwt.net Adaptat per a la plantilla per  Wim van der Kuil - Leuven-Template.eu

Trobareu la nostra informacio del temps tambe a:

Weather Underground

AWEKAS